sensor_id;sensor_type;location;lat;lon;timestamp;P1;durP1;ratioP1;P2;durP2;ratioP2
77788;SDS011;66980;44.384;0.512;2023-04-01T00:00:18;8.85;;;2.10;;
77788;SDS011;66980;44.384;0.512;2023-04-01T00:02:45;5.65;;;2.80;;
77788;SDS011;66980;44.384;0.512;2023-04-01T00:05:11;6.13;;;2.65;;
77788;SDS011;66980;44.384;0.512;2023-04-01T00:07:37;7.28;;;2.15;;
77788;SDS011;66980;44.384;0.512;2023-04-01T00:10:03;7.60;;;3.35;;
77788;SDS011;66980;44.384;0.512;2023-04-01T00:12:30;6.50;;;2.38;;
77788;SDS011;66980;44.384;0.512;2023-04-01T00:14:56;4.72;;;2.35;;
77788;SDS011;66980;44.384;0.512;2023-04-01T00:17:21;8.45;;;3.05;;
77788;SDS011;66980;44.384;0.512;2023-04-01T00:19:47;5.15;;;2.42;;
77788;SDS011;66980;44.384;0.512;2023-04-01T00:22:13;4.03;;;2.08;;
77788;SDS011;66980;44.384;0.512;2023-04-01T00:24:38;9.00;;;3.35;;
77788;SDS011;66980;44.384;0.512;2023-04-01T00:27:04;4.93;;;2.38;;
77788;SDS011;66980;44.384;0.512;2023-04-01T00:29:30;7.32;;;2.85;;
77788;SDS011;66980;44.384;0.512;2023-04-01T00:31:57;7.65;;;2.10;;
77788;SDS011;66980;44.384;0.512;2023-04-01T00:34:23;6.68;;;2.58;;
77788;SDS011;66980;44.384;0.512;2023-04-01T00:36:49;7.32;;;2.50;;
77788;SDS011;66980;44.384;0.512;2023-04-01T00:39:15;8.23;;;2.63;;
77788;SDS011;66980;44.384;0.512;2023-04-01T00:41:41;4.95;;;2.60;;
77788;SDS011;66980;44.384;0.512;2023-04-01T00:44:20;5.97;;;2.80;;
77788;SDS011;66980;44.384;0.512;2023-04-01T00:46:46;6.85;;;3.45;;
77788;SDS011;66980;44.384;0.512;2023-04-01T00:49:12;9.40;;;2.70;;
77788;SDS011;66980;44.384;0.512;2023-04-01T00:51:39;6.88;;;2.47;;
77788;SDS011;66980;44.384;0.512;2023-04-01T00:54:06;7.28;;;2.30;;
77788;SDS011;66980;44.384;0.512;2023-04-01T00:56:35;7.38;;;2.15;;
77788;SDS011;66980;44.384;0.512;2023-04-01T00:59:11;7.13;;;2.45;;
77788;SDS011;66980;44.384;0.512;2023-04-01T01:01:40;9.30;;;2.80;;
77788;SDS011;66980;44.384;0.512;2023-04-01T01:04:06;6.10;;;2.05;;
77788;SDS011;66980;44.384;0.512;2023-04-01T01:12:10;8.35;;;3.08;;
77788;SDS011;66980;44.384;0.512;2023-04-01T01:22:36;6.05;;;2.40;;
77788;SDS011;66980;44.384;0.512;2023-04-01T01:27:46;5.55;;;2.90;;
77788;SDS011;66980;44.384;0.512;2023-04-01T01:30:51;7.68;;;2.28;;
77788;SDS011;66980;44.384;0.512;2023-04-01T01:36:16;7.30;;;2.92;;
77788;SDS011;66980;44.384;0.512;2023-04-01T01:38:43;6.82;;;2.25;;
77788;SDS011;66980;44.384;0.512;2023-04-01T01:41:10;4.75;;;2.35;;
77788;SDS011;66980;44.384;0.512;2023-04-01T01:43:40;7.65;;;2.95;;
77788;SDS011;66980;44.384;0.512;2023-04-01T01:46:11;9.38;;;2.58;;
77788;SDS011;66980;44.384;0.512;2023-04-01T01:48:42;5.40;;;2.33;;
77788;SDS011;66980;44.384;0.512;2023-04-01T01:51:09;6.75;;;3.30;;
77788;SDS011;66980;44.384;0.512;2023-04-01T01:53:35;5.18;;;2.50;;
77788;SDS011;66980;44.384;0.512;2023-04-01T01:56:01;8.68;;;2.55;;
77788;SDS011;66980;44.384;0.512;2023-04-01T01:58:31;8.88;;;3.17;;
77788;SDS011;66980;44.384;0.512;2023-04-01T02:01:05;8.05;;;2.53;;
77788;SDS011;66980;44.384;0.512;2023-04-01T02:03:34;9.98;;;2.65;;
77788;SDS011;66980;44.384;0.512;2023-04-01T02:06:03;10.80;;;2.78;;
77788;SDS011;66980;44.384;0.512;2023-04-01T02:08:33;5.45;;;2.30;;
77788;SDS011;66980;44.384;0.512;2023-04-01T02:11:11;9.90;;;2.67;;
77788;SDS011;66980;44.384;0.512;2023-04-01T02:14:13;4.60;;;2.17;;
77788;SDS011;66980;44.384;0.512;2023-04-01T02:16:38;6.03;;;2.38;;
77788;SDS011;66980;44.384;0.512;2023-04-01T02:19:05;5.07;;;2.70;;
77788;SDS011;66980;44.384;0.512;2023-04-01T02:21:35;5.03;;;2.47;;
77788;SDS011;66980;44.384;0.512;2023-04-01T02:24:04;5.03;;;2.10;;
77788;SDS011;66980;44.384;0.512;2023-04-01T02:26:34;8.15;;;2.10;;
77788;SDS011;66980;44.384;0.512;2023-04-01T02:29:00;8.20;;;2.53;;
77788;SDS011;66980;44.384;0.512;2023-04-01T02:31:27;7.45;;;2.72;;
77788;SDS011;66980;44.384;0.512;2023-04-01T02:33:52;6.43;;;2.50;;
77788;SDS011;66980;44.384;0.512;2023-04-01T02:36:19;6.97;;;2.70;;
77788;SDS011;66980;44.384;0.512;2023-04-01T02:38:45;4.40;;;2.30;;
77788;SDS011;66980;44.384;0.512;2023-04-01T02:41:12;6.38;;;2.50;;
77788;SDS011;66980;44.384;0.512;2023-04-01T02:43:38;4.93;;;2.30;;
77788;SDS011;66980;44.384;0.512;2023-04-01T02:46:04;4.47;;;2.35;;
77788;SDS011;66980;44.384;0.512;2023-04-01T02:48:29;5.53;;;2.60;;
77788;SDS011;66980;44.384;0.512;2023-04-01T02:50:55;5.32;;;2.63;;
77788;SDS011;66980;44.384;0.512;2023-04-01T02:53:21;9.65;;;3.30;;
77788;SDS011;66980;44.384;0.512;2023-04-01T02:55:46;8.70;;;3.28;;
77788;SDS011;66980;44.384;0.512;2023-04-01T02:58:15;7.03;;;2.78;;
77788;SDS011;66980;44.384;0.512;2023-04-01T03:00:41;4.88;;;2.17;;
77788;SDS011;66980;44.384;0.512;2023-04-01T03:03:07;4.63;;;2.00;;
77788;SDS011;66980;44.384;0.512;2023-04-01T03:05:33;5.15;;;2.05;;
77788;SDS011;66980;44.384;0.512;2023-04-01T03:07:59;8.13;;;2.83;;
77788;SDS011;66980;44.384;0.512;2023-04-01T03:10:25;5.10;;;2.45;;
77788;SDS011;66980;44.384;0.512;2023-04-01T03:12:50;5.32;;;2.22;;
77788;SDS011;66980;44.384;0.512;2023-04-01T03:15:16;11.07;;;3.30;;
77788;SDS011;66980;44.384;0.512;2023-04-01T03:17:41;5.50;;;2.42;;
77788;SDS011;66980;44.384;0.512;2023-04-01T03:20:08;4.35;;;2.65;;
77788;SDS011;66980;44.384;0.512;2023-04-01T03:25:01;5.00;;;2.13;;
77788;SDS011;66980;44.384;0.512;2023-04-01T03:27:28;9.68;;;2.90;;
77788;SDS011;66980;44.384;0.512;2023-04-01T03:29:53;9.35;;;3.22;;
77788;SDS011;66980;44.384;0.512;2023-04-01T03:32:19;6.45;;;2.80;;
77788;SDS011;66980;44.384;0.512;2023-04-01T03:34:44;7.68;;;2.45;;
77788;SDS011;66980;44.384;0.512;2023-04-01T03:37:10;4.32;;;2.03;;
77788;SDS011;66980;44.384;0.512;2023-04-01T03:39:35;7.68;;;2.53;;
77788;SDS011;66980;44.384;0.512;2023-04-01T03:42:01;8.90;;;2.50;;
77788;SDS011;66980;44.384;0.512;2023-04-01T03:44:30;3.85;;;1.80;;
77788;SDS011;66980;44.384;0.512;2023-04-01T03:46:56;7.13;;;2.60;;
77788;SDS011;66980;44.384;0.512;2023-04-01T03:49:21;4.57;;;2.28;;
77788;SDS011;66980;44.384;0.512;2023-04-01T03:51:47;5.25;;;2.67;;
77788;SDS011;66980;44.384;0.512;2023-04-01T03:54:15;6.97;;;2.25;;
77788;SDS011;66980;44.384;0.512;2023-04-01T03:56:42;6.53;;;2.78;;
77788;SDS011;66980;44.384;0.512;2023-04-01T03:59:07;7.57;;;2.83;;
77788;SDS011;66980;44.384;0.512;2023-04-01T04:01:34;5.22;;;2.22;;
77788;SDS011;66980;44.384;0.512;2023-04-01T04:03:59;7.85;;;2.65;;
77788;SDS011;66980;44.384;0.512;2023-04-01T04:06:25;5.22;;;2.25;;
77788;SDS011;66980;44.384;0.512;2023-04-01T04:08:52;5.47;;;2.63;;
77788;SDS011;66980;44.384;0.512;2023-04-01T04:11:19;4.47;;;2.15;;
77788;SDS011;66980;44.384;0.512;2023-04-01T04:16:14;6.80;;;2.25;;
77788;SDS011;66980;44.384;0.512;2023-04-01T04:18:40;4.75;;;1.98;;
77788;SDS011;66980;44.384;0.512;2023-04-01T04:21:05;4.78;;;1.75;;
77788;SDS011;66980;44.384;0.512;2023-04-01T04:23:31;4.93;;;1.95;;
77788;SDS011;66980;44.384;0.512;2023-04-01T04:26:05;5.82;;;2.10;;
77788;SDS011;66980;44.384;0.512;2023-04-01T04:28:32;6.90;;;2.88;;
77788;SDS011;66980;44.384;0.512;2023-04-01T04:30:58;5.78;;;3.00;;
77788;SDS011;66980;44.384;0.512;2023-04-01T04:33:25;7.45;;;2.83;;
77788;SDS011;66980;44.384;0.512;2023-04-01T04:35:51;5.05;;;2.25;;
77788;SDS011;66980;44.384;0.512;2023-04-01T04:38:17;3.35;;;2.03;;
77788;SDS011;66980;44.384;0.512;2023-04-01T04:40:42;4.72;;;1.90;;
77788;SDS011;66980;44.384;0.512;2023-04-01T04:43:10;8.18;;;2.33;;
77788;SDS011;66980;44.384;0.512;2023-04-01T04:45:36;9.27;;;2.78;;
77788;SDS011;66980;44.384;0.512;2023-04-01T04:48:02;5.45;;;2.50;;
77788;SDS011;66980;44.384;0.512;2023-04-01T04:50:28;5.53;;;2.70;;
77788;SDS011;66980;44.384;0.512;2023-04-01T04:52:53;4.05;;;2.00;;
77788;SDS011;66980;44.384;0.512;2023-04-01T04:55:19;4.88;;;2.33;;
77788;SDS011;66980;44.384;0.512;2023-04-01T04:57:45;3.97;;;2.38;;
77788;SDS011;66980;44.384;0.512;2023-04-01T05:00:10;3.85;;;2.08;;
77788;SDS011;66980;44.384;0.512;2023-04-01T05:02:36;6.55;;;2.47;;
77788;SDS011;66980;44.384;0.512;2023-04-01T05:05:02;4.82;;;2.72;;
77788;SDS011;66980;44.384;0.512;2023-04-01T05:07:27;5.82;;;2.60;;
77788;SDS011;66980;44.384;0.512;2023-04-01T05:09:53;4.30;;;2.22;;
77788;SDS011;66980;44.384;0.512;2023-04-01T05:12:18;5.80;;;2.53;;
77788;SDS011;66980;44.384;0.512;2023-04-01T05:14:44;5.20;;;2.28;;
77788;SDS011;66980;44.384;0.512;2023-04-01T05:17:12;5.50;;;2.28;;
77788;SDS011;66980;44.384;0.512;2023-04-01T05:19:38;4.68;;;2.60;;
77788;SDS011;66980;44.384;0.512;2023-04-01T05:22:04;7.07;;;2.50;;
77788;SDS011;66980;44.384;0.512;2023-04-01T05:24:31;6.95;;;2.40;;
77788;SDS011;66980;44.384;0.512;2023-04-01T05:26:57;4.82;;;2.72;;
77788;SDS011;66980;44.384;0.512;2023-04-01T05:29:23;5.00;;;2.15;;
77788;SDS011;66980;44.384;0.512;2023-04-01T05:31:49;5.90;;;2.20;;
77788;SDS011;66980;44.384;0.512;2023-04-01T05:34:15;4.35;;;2.10;;
77788;SDS011;66980;44.384;0.512;2023-04-01T05:36:40;3.63;;;1.67;;
77788;SDS011;66980;44.384;0.512;2023-04-01T05:39:07;6.57;;;2.80;;
77788;SDS011;66980;44.384;0.512;2023-04-01T05:41:34;7.97;;;2.88;;
77788;SDS011;66980;44.384;0.512;2023-04-01T05:44:01;8.48;;;2.53;;
77788;SDS011;66980;44.384;0.512;2023-04-01T05:46:27;8.73;;;2.20;;
77788;SDS011;66980;44.384;0.512;2023-04-01T05:48:52;4.45;;;1.50;;
77788;SDS011;66980;44.384;0.512;2023-04-01T05:51:18;4.88;;;2.20;;
77788;SDS011;66980;44.384;0.512;2023-04-01T05:53:43;4.50;;;2.13;;
77788;SDS011;66980;44.384;0.512;2023-04-01T05:56:09;7.53;;;2.63;;
77788;SDS011;66980;44.384;0.512;2023-04-01T05:58:37;5.65;;;2.33;;
77788;SDS011;66980;44.384;0.512;2023-04-01T06:01:04;6.20;;;2.38;;
77788;SDS011;66980;44.384;0.512;2023-04-01T06:03:31;7.22;;;2.38;;
77788;SDS011;66980;44.384;0.512;2023-04-01T06:05:57;2.92;;;1.20;;
77788;SDS011;66980;44.384;0.512;2023-04-01T06:08:23;7.53;;;2.42;;
77788;SDS011;66980;44.384;0.512;2023-04-01T06:16:20;8.55;;;1.98;;
77788;SDS011;66980;44.384;0.512;2023-04-01T06:43:01;4.43;;;1.52;;
77788;SDS011;66980;44.384;0.512;2023-04-01T06:45:40;7.85;;;2.28;;
77788;SDS011;66980;44.384;0.512;2023-04-01T06:48:22;8.63;;;1.67;;
77788;SDS011;66980;44.384;0.512;2023-04-01T06:53:40;7.22;;;1.75;;
77788;SDS011;66980;44.384;0.512;2023-04-01T06:56:17;7.60;;;1.55;;
77788;SDS011;66980;44.384;0.512;2023-04-01T07:01:26;10.70;;;2.15;;
77788;SDS011;66980;44.384;0.512;2023-04-01T07:04:00;10.18;;;1.48;;
77788;SDS011;66980;44.384;0.512;2023-04-01T07:06:38;7.15;;;1.60;;
77788;SDS011;66980;44.384;0.512;2023-04-01T07:09:16;5.47;;;1.30;;
77788;SDS011;66980;44.384;0.512;2023-04-01T07:11:44;9.68;;;1.90;;
77788;SDS011;66980;44.384;0.512;2023-04-01T07:16:47;7.82;;;1.42;;
77788;SDS011;66980;44.384;0.512;2023-04-01T07:19:22;6.18;;;1.50;;
77788;SDS011;66980;44.384;0.512;2023-04-01T07:22:02;5.43;;;0.90;;
77788;SDS011;66980;44.384;0.512;2023-04-01T07:24:34;4.03;;;0.98;;
77788;SDS011;66980;44.384;0.512;2023-04-01T07:27:03;6.40;;;0.73;;
77788;SDS011;66980;44.384;0.512;2023-04-01T07:29:33;3.30;;;0.80;;
77788;SDS011;66980;44.384;0.512;2023-04-01T07:37:51;8.38;;;1.42;;
77788;SDS011;66980;44.384;0.512;2023-04-01T07:40:35;4.10;;;0.82;;
77788;SDS011;66980;44.384;0.512;2023-04-01T07:45:35;5.35;;;2.03;;
77788;SDS011;66980;44.384;0.512;2023-04-01T07:48:17;14.23;;;1.50;;
77788;SDS011;66980;44.384;0.512;2023-04-01T07:54:21;6.35;;;1.58;;
77788;SDS011;66980;44.384;0.512;2023-04-01T08:03:00;6.10;;;2.35;;
77788;SDS011;66980;44.384;0.512;2023-04-01T08:11:31;16.58;;;3.38;;
77788;SDS011;66980;44.384;0.512;2023-04-01T08:16:37;13.43;;;4.45;;
77788;SDS011;66980;44.384;0.512;2023-04-01T08:21:58;7.47;;;3.33;;
77788;SDS011;66980;44.384;0.512;2023-04-01T08:27:05;10.93;;;3.13;;
77788;SDS011;66980;44.384;0.512;2023-04-01T08:30:02;11.30;;;3.38;;
77788;SDS011;66980;44.384;0.512;2023-04-01T08:32:34;10.02;;;3.97;;
77788;SDS011;66980;44.384;0.512;2023-04-01T08:35:09;7.13;;;2.85;;
77788;SDS011;66980;44.384;0.512;2023-04-01T08:37:44;8.70;;;2.42;;
77788;SDS011;66980;44.384;0.512;2023-04-01T08:56:50;15.50;;;2.95;;
77788;SDS011;66980;44.384;0.512;2023-04-01T09:02:17;8.57;;;3.05;;
77788;SDS011;66980;44.384;0.512;2023-04-01T09:05:04;5.95;;;2.50;;
77788;SDS011;66980;44.384;0.512;2023-04-01T09:18:12;6.82;;;1.90;;
77788;SDS011;66980;44.384;0.512;2023-04-01T09:23:10;8.05;;;2.08;;
77788;SDS011;66980;44.384;0.512;2023-04-01T09:36:46;6.05;;;1.70;;
77788;SDS011;66980;44.384;0.512;2023-04-01T09:50:32;4.75;;;2.03;;
77788;SDS011;66980;44.384;0.512;2023-04-01T10:07:42;5.25;;;1.30;;
77788;SDS011;66980;44.384;0.512;2023-04-01T10:16:03;5.63;;;2.13;;
77788;SDS011;66980;44.384;0.512;2023-04-01T10:18:38;5.90;;;1.90;;
77788;SDS011;66980;44.384;0.512;2023-04-01T10:21:16;6.10;;;1.40;;
77788;SDS011;66980;44.384;0.512;2023-04-01T10:46:19;5.78;;;1.98;;
77788;SDS011;66980;44.384;0.512;2023-04-01T10:54:37;9.35;;;1.73;;
77788;SDS011;66980;44.384;0.512;2023-04-01T10:57:19;3.63;;;1.30;;
77788;SDS011;66980;44.384;0.512;2023-04-01T11:00:17;5.88;;;1.63;;
77788;SDS011;66980;44.384;0.512;2023-04-01T11:11:20;5.28;;;1.50;;
77788;SDS011;66980;44.384;0.512;2023-04-01T11:14:30;8.07;;;1.92;;
77788;SDS011;66980;44.384;0.512;2023-04-01T11:20:22;8.10;;;1.35;;
77788;SDS011;66980;44.384;0.512;2023-04-01T11:26:08;4.47;;;1.08;;
77788;SDS011;66980;44.384;0.512;2023-04-01T11:31:37;5.45;;;1.17;;
77788;SDS011;66980;44.384;0.512;2023-04-01T11:39:39;6.75;;;2.08;;
77788;SDS011;66980;44.384;0.512;2023-04-01T11:45:23;11.82;;;1.85;;
77788;SDS011;66980;44.384;0.512;2023-04-01T11:50:46;5.10;;;1.85;;
77788;SDS011;66980;44.384;0.512;2023-04-01T11:59:26;8.00;;;1.60;;
77788;SDS011;66980;44.384;0.512;2023-04-01T12:01:59;5.47;;;1.52;;
77788;SDS011;66980;44.384;0.512;2023-04-01T12:15:34;8.23;;;1.77;;
77788;SDS011;66980;44.384;0.512;2023-04-01T12:23:51;8.88;;;1.02;;
77788;SDS011;66980;44.384;0.512;2023-04-01T12:32:17;4.25;;;1.05;;
77788;SDS011;66980;44.384;0.512;2023-04-01T12:43:07;4.75;;;1.45;;
77788;SDS011;66980;44.384;0.512;2023-04-01T12:45:49;5.00;;;1.02;;
77788;SDS011;66980;44.384;0.512;2023-04-01T18:51:51;43.00;;;17.17;;
77788;SDS011;66980;44.384;0.512;2023-04-01T18:56:51;40.10;;;17.00;;
77788;SDS011;66980;44.384;0.512;2023-04-01T18:59:40;71.75;;;29.98;;
77788;SDS011;66980;44.384;0.512;2023-04-01T19:16:04;178.73;;;80.95;;
77788;SDS011;66980;44.384;0.512;2023-04-01T19:21:29;186.98;;;82.75;;
77788;SDS011;66980;44.384;0.512;2023-04-01T19:24:11;183.25;;;86.20;;
77788;SDS011;66980;44.384;0.512;2023-04-01T19:38:04;164.38;;;76.55;;
77788;SDS011;66980;44.384;0.512;2023-04-01T19:46:08;153.57;;;67.50;;
77788;SDS011;66980;44.384;0.512;2023-04-01T19:57:00;126.75;;;57.22;;
77788;SDS011;66980;44.384;0.512;2023-04-01T20:05:45;100.30;;;48.33;;
77788;SDS011;66980;44.384;0.512;2023-04-01T20:11:01;103.72;;;50.17;;
77788;SDS011;66980;44.384;0.512;2023-04-01T20:16:17;98.13;;;47.92;;
77788;SDS011;66980;44.384;0.512;2023-04-01T20:26:50;98.07;;;45.83;;
77788;SDS011;66980;44.384;0.512;2023-04-01T20:35:16;87.68;;;36.38;;
77788;SDS011;66980;44.384;0.512;2023-04-01T20:41:19;71.28;;;34.78;;
77788;SDS011;66980;44.384;0.512;2023-04-01T20:43:51;67.20;;;34.90;;
77788;SDS011;66980;44.384;0.512;2023-04-01T20:54:43;69.05;;;32.10;;
77788;SDS011;66980;44.384;0.512;2023-04-01T20:57:30;71.82;;;30.67;;
77788;SDS011;66980;44.384;0.512;2023-04-01T21:02:56;60.00;;;29.92;;
77788;SDS011;66980;44.384;0.512;2023-04-01T21:05:31;55.08;;;27.10;;
77788;SDS011;66980;44.384;0.512;2023-04-01T21:08:09;52.40;;;26.80;;
77788;SDS011;66980;44.384;0.512;2023-04-01T21:15:09;50.58;;;27.10;;
77788;SDS011;66980;44.384;0.512;2023-04-01T21:28:03;52.95;;;24.85;;
77788;SDS011;66980;44.384;0.512;2023-04-01T21:39:13;45.92;;;23.48;;
77788;SDS011;66980;44.384;0.512;2023-04-01T22:10:48;42.08;;;18.63;;
77788;SDS011;66980;44.384;0.512;2023-04-01T22:13:32;39.05;;;18.05;;
77788;SDS011;66980;44.384;0.512;2023-04-01T22:16:02;42.95;;;17.60;;
77788;SDS011;66980;44.384;0.512;2023-04-01T22:18:59;31.92;;;16.88;;
77788;SDS011;66980;44.384;0.512;2023-04-01T22:21:44;32.90;;;16.70;;
77788;SDS011;66980;44.384;0.512;2023-04-01T22:25:11;35.33;;;16.45;;
77788;SDS011;66980;44.384;0.512;2023-04-01T22:28:07;30.13;;;16.13;;
77788;SDS011;66980;44.384;0.512;2023-04-01T22:30:53;27.48;;;15.50;;
77788;SDS011;66980;44.384;0.512;2023-04-01T22:36:11;36.30;;;17.95;;
77788;SDS011;66980;44.384;0.512;2023-04-01T22:47:33;28.88;;;15.25;;
77788;SDS011;66980;44.384;0.512;2023-04-01T22:50:29;27.92;;;14.65;;
77788;SDS011;66980;44.384;0.512;2023-04-01T22:55:53;27.25;;;15.38;;
77788;SDS011;66980;44.384;0.512;2023-04-01T22:58:30;30.45;;;14.05;;
77788;SDS011;66980;44.384;0.512;2023-04-01T23:00:59;27.92;;;13.63;;
77788;SDS011;66980;44.384;0.512;2023-04-01T23:03:31;27.90;;;13.48;;
77788;SDS011;66980;44.384;0.512;2023-04-01T23:06:00;27.13;;;14.27;;
77788;SDS011;66980;44.384;0.512;2023-04-01T23:11:22;24.83;;;13.90;;
77788;SDS011;66980;44.384;0.512;2023-04-01T23:14:05;31.52;;;13.23;;
77788;SDS011;66980;44.384;0.512;2023-04-01T23:16:35;25.80;;;12.93;;
77788;SDS011;66980;44.384;0.512;2023-04-01T23:19:17;25.95;;;13.38;;
77788;SDS011;66980;44.384;0.512;2023-04-01T23:21:53;29.63;;;13.90;;
77788;SDS011;66980;44.384;0.512;2023-04-01T23:24:38;30.13;;;14.02;;
77788;SDS011;66980;44.384;0.512;2023-04-01T23:27:16;23.42;;;13.60;;
77788;SDS011;66980;44.384;0.512;2023-04-01T23:29:46;26.92;;;11.88;;
77788;SDS011;66980;44.384;0.512;2023-04-01T23:32:15;20.35;;;12.55;;
77788;SDS011;66980;44.384;0.512;2023-04-01T23:34:52;25.58;;;12.23;;
77788;SDS011;66980;44.384;0.512;2023-04-01T23:37:21;22.88;;;13.20;;
77788;SDS011;66980;44.384;0.512;2023-04-01T23:39:49;27.38;;;12.85;;
77788;SDS011;66980;44.384;0.512;2023-04-01T23:42:29;23.02;;;11.57;;
77788;SDS011;66980;44.384;0.512;2023-04-01T23:45:04;20.88;;;11.77;;
77788;SDS011;66980;44.384;0.512;2023-04-01T23:47:38;27.63;;;12.50;;
77788;SDS011;66980;44.384;0.512;2023-04-01T23:52:42;19.83;;;10.90;;
77788;SDS011;66980;44.384;0.512;2023-04-01T23:57:43;23.70;;;13.77;;
